CHB6443 ZULS-ZUCK
Flight info
| Callsign | CHB6443 |
|---|---|
| Flight time | 2h 1m |
| Altitude | 35100 |
| Route | LXA W500 DM W9 CZH B213 VINEX VINEX6K |
| Aircraft | A320/M-SDE3FGHIRWY/LB1 |
Departure
| Time | 2026-05-06 09:58 |
|---|---|
| Airport | Lhasa Gonggar International Airport (ZULS) |
Arrival
| Time | 2026-05-06 11:59 |
|---|---|
| Airport | Chongqing Jiangbei International Airport (ZUCK) |
| Time | Latitude | Longitude | Altitude | Speed | Heading |
|---|---|---|---|---|---|
| 2026-05-06 09:39 | 29.29370 | 90.89720 | 11455 ft | 0 kts | 180° |
| 2026-05-06 09:46 | 29.29379 | 90.89720 | 11441 ft | 4 kts | 180° |
| 2026-05-06 09:47 | 29.29407 | 90.89720 | 11440 ft | 4 kts | 180° |
| 2026-05-06 09:47 | 29.29431 | 90.89719 | 11448 ft | 4 kts | 155° |
| 2026-05-06 09:47 | 29.29448 | 90.89700 | 11445 ft | 4 kts | 105° |
| 2026-05-06 09:47 | 29.29451 | 90.89670 | 11445 ft | 3 kts | 89° |
| 2026-05-06 09:48 | 29.29451 | 90.89665 | 11451 ft | 0 kts | 89° |
| 2026-05-06 09:49 | 29.29452 | 90.89685 | 11442 ft | 5 kts | 89° |
| 2026-05-06 09:50 | 29.29471 | 90.89716 | 11440 ft | 7 kts | 7° |
| 2026-05-06 09:50 | 29.29519 | 90.89743 | 11450 ft | 10 kts | 71° |
| 2026-05-06 09:50 | 29.29523 | 90.89823 | 11454 ft | 10 kts | 89° |
| 2026-05-06 09:50 | 29.29524 | 90.89907 | 11454 ft | 12 kts | 89° |
| 2026-05-06 09:51 | 29.29542 | 90.90000 | 11440 ft | 12 kts | 39° |
| 2026-05-06 09:51 | 29.29617 | 90.90021 | 11447 ft | 10 kts | 49° |
| 2026-05-06 09:51 | 29.29625 | 90.90120 | 11443 ft | 14 kts | 89° |
| 2026-05-06 09:51 | 29.29627 | 90.90260 | 11454 ft | 23 kts | 89° |
| 2026-05-06 09:52 | 29.29630 | 90.90458 | 11453 ft | 25 kts | 88° |
| 2026-05-06 09:52 | 29.29633 | 90.90655 | 11452 ft | 24 kts | 89° |
| 2026-05-06 09:52 | 29.29636 | 90.90844 | 11447 ft | 23 kts | 89° |
| 2026-05-06 09:52 | 29.29639 | 90.91027 | 11451 ft | 23 kts | 89° |
| 2026-05-06 09:53 | 29.29641 | 90.91204 | 11452 ft | 22 kts | 89° |
| 2026-05-06 09:53 | 29.29644 | 90.91384 | 11452 ft | 25 kts | 89° |
| 2026-05-06 09:53 | 29.29645 | 90.91582 | 11442 ft | 24 kts | 89° |
| 2026-05-06 09:53 | 29.29650 | 90.91773 | 11422 ft | 24 kts | 88° |
| 2026-05-06 09:54 | 29.29653 | 90.91961 | 11420 ft | 23 kts | 89° |
| 2026-05-06 09:54 | 29.29655 | 90.92145 | 11434 ft | 23 kts | 89° |
| 2026-05-06 09:54 | 29.29658 | 90.92323 | 11433 ft | 23 kts | 89° |
| 2026-05-06 09:54 | 29.29662 | 90.92518 | 11433 ft | 24 kts | 89° |
| 2026-05-06 09:55 | 29.29665 | 90.92712 | 11432 ft | 24 kts | 89° |
| 2026-05-06 09:55 | 29.29668 | 90.92893 | 11432 ft | 22 kts | 90° |
| 2026-05-06 09:55 | 29.29670 | 90.93067 | 11432 ft | 21 kts | 89° |
| 2026-05-06 09:55 | 29.29673 | 90.93231 | 11432 ft | 20 kts | 85° |
| 2026-05-06 09:56 | 29.29758 | 90.93268 | 11424 ft | 14 kts | 360° |
| 2026-05-06 09:56 | 29.29834 | 90.93242 | 11428 ft | 11 kts | 295° |
| 2026-05-06 09:56 | 29.29838 | 90.93160 | 11421 ft | 10 kts | 269° |
| 2026-05-06 09:56 | 29.29835 | 90.92983 | 11432 ft | 46 kts | 268° |
| 2026-05-06 09:57 | 29.29821 | 90.92384 | 11432 ft | 103 kts | 269° |
| 2026-05-06 09:57 | 29.29806 | 90.91385 | 11452 ft | 147 kts | 271° |
| 2026-05-06 09:57 | 29.29773 | 90.90066 | 11540 ft | 179 kts | 267° |
| 2026-05-06 09:57 | 29.29825 | 90.88619 | 12178 ft | 187 kts | 268° |
| 2026-05-06 09:58 | 29.29856 | 90.87108 | 13014 ft | 190 kts | 265° |
| 2026-05-06 09:58 | 29.29501 | 90.85778 | 13621 ft | 166 kts | 232° |
| 2026-05-06 09:58 | 29.28543 | 90.85068 | 13890 ft | 176 kts | 193° |
| 2026-05-06 09:58 | 29.27281 | 90.85338 | 14106 ft | 200 kts | 158° |
| 2026-05-06 09:59 | 29.26196 | 90.86390 | 14459 ft | 210 kts | 133° |
| 2026-05-06 09:59 | 29.25710 | 90.87367 | 14601 ft | 223 kts | 112° |
| 2026-05-06 09:59 | 29.25496 | 90.89929 | 14734 ft | 259 kts | 93° |
| 2026-05-06 09:59 | 29.25499 | 90.91326 | 14841 ft | 271 kts | 92° |
| 2026-05-06 10:00 | 29.25512 | 90.93542 | 14936 ft | 285 kts | 94° |
| 2026-05-06 10:00 | 29.25534 | 90.96674 | 15078 ft | 306 kts | 93° |
| 2026-05-06 10:00 | 29.25547 | 90.99173 | 15197 ft | 325 kts | 92° |
| 2026-05-06 10:00 | 29.25554 | 91.00924 | 15283 ft | 338 kts | 93° |
| 2026-05-06 10:01 | 29.25564 | 91.03691 | 15406 ft | 357 kts | 92° |
| 2026-05-06 10:01 | 29.25572 | 91.06602 | 15531 ft | 373 kts | 92° |
| 2026-05-06 10:01 | 29.25579 | 91.09630 | 15642 ft | 388 kts | 92° |
| 2026-05-06 10:01 | 29.25587 | 91.12789 | 15766 ft | 405 kts | 92° |
| 2026-05-06 10:02 | 29.25592 | 91.16052 | 15902 ft | 416 kts | 92° |
| 2026-05-06 10:02 | 29.25598 | 91.19391 | 16256 ft | 420 kts | 90° |
| 2026-05-06 10:02 | 29.25969 | 91.22725 | 16609 ft | 426 kts | 78° |
| 2026-05-06 10:02 | 29.26731 | 91.26014 | 17040 ft | 429 kts | 74° |
| 2026-05-06 10:03 | 29.27490 | 91.29326 | 17463 ft | 431 kts | 83° |
| 2026-05-06 10:03 | 29.27598 | 91.32751 | 17911 ft | 431 kts | 93° |
| 2026-05-06 10:03 | 29.27503 | 91.36188 | 18305 ft | 433 kts | 94° |
| 2026-05-06 10:03 | 29.27400 | 91.39643 | 18706 ft | 435 kts | 94° |
| 2026-05-06 10:04 | 29.27292 | 91.43117 | 19110 ft | 437 kts | 94° |
| 2026-05-06 10:04 | 29.27183 | 91.46607 | 19477 ft | 440 kts | 94° |
| 2026-05-06 10:04 | 29.27074 | 91.50122 | 19872 ft | 442 kts | 94° |
| 2026-05-06 10:04 | 29.26965 | 91.53649 | 20243 ft | 444 kts | 94° |
| 2026-05-06 10:05 | 29.26856 | 91.57179 | 20693 ft | 444 kts | 94° |
| 2026-05-06 10:05 | 29.26743 | 91.60722 | 21087 ft | 446 kts | 94° |
| 2026-05-06 10:05 | 29.26628 | 91.64277 | 21455 ft | 448 kts | 94° |
| 2026-05-06 10:05 | 29.26513 | 91.67852 | 21815 ft | 451 kts | 94° |
| 2026-05-06 10:06 | 29.26398 | 91.71446 | 22178 ft | 453 kts | 94° |
| 2026-05-06 10:06 | 29.26283 | 91.75067 | 22525 ft | 456 kts | 94° |
| 2026-05-06 10:06 | 29.26169 | 91.78706 | 22864 ft | 459 kts | 94° |
| 2026-05-06 10:06 | 29.26055 | 91.82369 | 23212 ft | 461 kts | 94° |
| 2026-05-06 10:07 | 29.25936 | 91.86047 | 23508 ft | 463 kts | 94° |
| 2026-05-06 10:07 | 29.25814 | 91.89742 | 23787 ft | 466 kts | 94° |
| 2026-05-06 10:07 | 29.25690 | 91.93460 | 24080 ft | 469 kts | 94° |
| 2026-05-06 10:07 | 29.25563 | 91.97205 | 24282 ft | 473 kts | 94° |
| 2026-05-06 10:08 | 29.25432 | 92.00982 | 24518 ft | 476 kts | 95° |
| 2026-05-06 10:08 | 29.25299 | 92.04780 | 24845 ft | 477 kts | 94° |
| 2026-05-06 10:08 | 29.25166 | 92.08586 | 25119 ft | 480 kts | 95° |
| 2026-05-06 10:08 | 29.25031 | 92.12421 | 25412 ft | 482 kts | 94° |
| 2026-05-06 10:09 | 29.24895 | 92.16257 | 25691 ft | 484 kts | 95° |
| 2026-05-06 10:09 | 29.24758 | 92.20120 | 25930 ft | 486 kts | 95° |
| 2026-05-06 10:09 | 29.24621 | 92.24001 | 26190 ft | 489 kts | 94° |
| 2026-05-06 10:09 | 29.24483 | 92.27895 | 26454 ft | 491 kts | 94° |
| 2026-05-06 10:10 | 29.24340 | 92.31816 | 26781 ft | 493 kts | 95° |
| 2026-05-06 10:10 | 29.24197 | 92.35738 | 27071 ft | 494 kts | 95° |
| 2026-05-06 10:10 | 29.24055 | 92.39635 | 27306 ft | 497 kts | 95° |
| 2026-05-06 10:10 | 29.23907 | 92.43641 | 27557 ft | 498 kts | 94° |
| 2026-05-06 10:11 | 29.23758 | 92.47568 | 27793 ft | 501 kts | 94° |
| 2026-05-06 10:11 | 29.23614 | 92.51611 | 27973 ft | 503 kts | 93° |
| 2026-05-06 10:11 | 29.23816 | 92.55574 | 28188 ft | 508 kts | 83° |
| 2026-05-06 10:11 | 29.24544 | 92.59546 | 28423 ft | 512 kts | 74° |
| 2026-05-06 10:12 | 29.25795 | 92.63373 | 28681 ft | 515 kts | 64° |
| 2026-05-06 10:12 | 29.27515 | 92.67020 | 28969 ft | 514 kts | 60° |
| 2026-05-06 10:12 | 29.29295 | 92.70589 | 29169 ft | 517 kts | 59° |
| 2026-05-06 10:12 | 29.31078 | 92.74175 | 29375 ft | 519 kts | 59° |
| 2026-05-06 10:13 | 29.32864 | 92.77779 | 29751 ft | 519 kts | 60° |
| 2026-05-06 10:13 | 29.34643 | 92.81379 | 30076 ft | 519 kts | 60° |
| 2026-05-06 10:13 | 29.36424 | 92.84982 | 30312 ft | 520 kts | 59° |
| 2026-05-06 10:13 | 29.38205 | 92.88585 | 30588 ft | 520 kts | 60° |
| 2026-05-06 10:14 | 29.39993 | 92.92206 | 30848 ft | 521 kts | 60° |
| 2026-05-06 10:14 | 29.41770 | 92.95814 | 31145 ft | 521 kts | 60° |
| 2026-05-06 10:14 | 29.43550 | 92.99437 | 31382 ft | 521 kts | 60° |
| 2026-05-06 10:14 | 29.45312 | 93.03021 | 31670 ft | 521 kts | 59° |
| 2026-05-06 10:15 | 29.47090 | 93.06639 | 31940 ft | 521 kts | 60° |
| 2026-05-06 10:15 | 29.48874 | 93.10269 | 32164 ft | 522 kts | 60° |
| 2026-05-06 10:15 | 29.50658 | 93.13903 | 32427 ft | 522 kts | 60° |
| 2026-05-06 10:15 | 29.52434 | 93.17527 | 32836 ft | 518 kts | 60° |
| 2026-05-06 10:16 | 29.54195 | 93.21127 | 33186 ft | 516 kts | 60° |
| 2026-05-06 10:16 | 29.55946 | 93.24716 | 33479 ft | 515 kts | 60° |
| 2026-05-06 10:16 | 29.57701 | 93.28313 | 33764 ft | 515 kts | 60° |
| 2026-05-06 10:16 | 29.59449 | 93.31897 | 34017 ft | 514 kts | 60° |
| 2026-05-06 10:17 | 29.61199 | 93.35486 | 34221 ft | 515 kts | 60° |
| 2026-05-06 10:17 | 29.62954 | 93.39081 | 34433 ft | 515 kts | 60° |
| 2026-05-06 10:17 | 29.64708 | 93.42675 | 34666 ft | 515 kts | 60° |
| 2026-05-06 10:17 | 29.66455 | 93.46263 | 34857 ft | 515 kts | 60° |
| 2026-05-06 10:18 | 29.69960 | 93.53463 | 34987 ft | 517 kts | 60° |
| 2026-05-06 10:18 | 29.73467 | 93.60691 | 34980 ft | 517 kts | 60° |
| 2026-05-06 10:19 | 29.76953 | 93.67914 | 34989 ft | 517 kts | 60° |
| 2026-05-06 10:19 | 29.80446 | 93.75149 | 34960 ft | 514 kts | 60° |
| 2026-05-06 10:20 | 29.83911 | 93.82341 | 34975 ft | 513 kts | 60° |
| 2026-05-06 10:20 | 29.87377 | 93.89544 | 34965 ft | 515 kts | 60° |
| 2026-05-06 10:21 | 29.90151 | 93.97144 | 34988 ft | 516 kts | 77° |
| 2026-05-06 10:21 | 29.91749 | 94.05204 | 34991 ft | 516 kts | 78° |
| 2026-05-06 10:22 | 29.93360 | 94.13288 | 35015 ft | 518 kts | 78° |
| 2026-05-06 10:22 | 29.94973 | 94.21393 | 35001 ft | 519 kts | 78° |
| 2026-05-06 10:23 | 29.96565 | 94.29518 | 35017 ft | 519 kts | 79° |
| 2026-05-06 10:23 | 29.98149 | 94.37649 | 35020 ft | 520 kts | 78° |
| 2026-05-06 10:24 | 29.99735 | 94.45794 | 35042 ft | 520 kts | 79° |
| 2026-05-06 10:24 | 30.01319 | 94.53951 | 35046 ft | 521 kts | 78° |
| 2026-05-06 10:25 | 30.02902 | 94.62097 | 35042 ft | 521 kts | 79° |
| 2026-05-06 10:25 | 30.04492 | 94.70276 | 35092 ft | 523 kts | 78° |
| 2026-05-06 10:26 | 30.06062 | 94.78433 | 35085 ft | 519 kts | 78° |
| 2026-05-06 10:26 | 30.07617 | 94.86555 | 35084 ft | 519 kts | 78° |
| 2026-05-06 10:27 | 30.09173 | 94.94689 | 35094 ft | 518 kts | 78° |
| 2026-05-06 10:27 | 30.10730 | 95.02807 | 35044 ft | 516 kts | 78° |
| 2026-05-06 10:28 | 30.12349 | 95.10901 | 35070 ft | 520 kts | 77° |
| 2026-05-06 10:28 | 30.13991 | 95.19053 | 35086 ft | 521 kts | 78° |
| 2026-05-06 10:29 | 30.15610 | 95.27216 | 35083 ft | 519 kts | 78° |
| 2026-05-06 10:29 | 30.17209 | 95.35358 | 35087 ft | 521 kts | 78° |
| 2026-05-06 10:30 | 30.18804 | 95.43542 | 35103 ft | 523 kts | 77° |
| 2026-05-06 10:30 | 30.20400 | 95.51754 | 35108 ft | 524 kts | 77° |
| 2026-05-06 10:31 | 30.21999 | 95.59980 | 35105 ft | 525 kts | 77° |
| 2026-05-06 10:31 | 30.23610 | 95.68234 | 35125 ft | 526 kts | 77° |
| 2026-05-06 10:32 | 30.25215 | 95.76484 | 35099 ft | 524 kts | 77° |
| 2026-05-06 10:32 | 30.26799 | 95.84678 | 35120 ft | 526 kts | 77° |
| 2026-05-06 10:33 | 30.28386 | 95.92930 | 35120 ft | 526 kts | 77° |
| 2026-05-06 10:33 | 30.29969 | 96.01194 | 35082 ft | 526 kts | 77° |
| 2026-05-06 10:34 | 30.31592 | 96.09452 | 35064 ft | 527 kts | 76° |
| 2026-05-06 10:34 | 30.33261 | 96.17714 | 35047 ft | 528 kts | 76° |
| 2026-05-06 10:35 | 30.34937 | 96.25987 | 35009 ft | 528 kts | 77° |
| 2026-05-06 10:35 | 30.36584 | 96.34267 | 35005 ft | 528 kts | 77° |
| 2026-05-06 10:36 | 30.38215 | 96.42546 | 34978 ft | 527 kts | 77° |
| 2026-05-06 10:36 | 30.39842 | 96.50805 | 34950 ft | 525 kts | 76° |
| 2026-05-06 10:37 | 30.41470 | 96.59060 | 34957 ft | 526 kts | 76° |
| 2026-05-06 10:37 | 30.43088 | 96.67303 | 34954 ft | 523 kts | 76° |
| 2026-05-06 10:38 | 30.44700 | 96.75553 | 34965 ft | 525 kts | 76° |
| 2026-05-06 10:38 | 30.46311 | 96.83794 | 34946 ft | 524 kts | 76° |
| 2026-05-06 10:39 | 30.47909 | 96.92027 | 34933 ft | 524 kts | 76° |
| 2026-05-06 10:39 | 30.49497 | 97.00250 | 34925 ft | 522 kts | 76° |
| 2026-05-06 10:40 | 30.50818 | 97.07084 | 34921 ft | 523 kts | 76° |
| 2026-05-06 10:40 | 30.51905 | 97.15412 | 34879 ft | 523 kts | 90° |
| 2026-05-06 10:41 | 30.51377 | 97.23804 | 34873 ft | 522 kts | 97° |
| 2026-05-06 10:41 | 30.50684 | 97.32184 | 34830 ft | 522 kts | 96° |
| 2026-05-06 10:42 | 30.49998 | 97.40574 | 34854 ft | 523 kts | 96° |
| 2026-05-06 10:42 | 30.49295 | 97.48947 | 34834 ft | 521 kts | 97° |
| 2026-05-06 10:43 | 30.48589 | 97.57306 | 34825 ft | 521 kts | 97° |
| 2026-05-06 10:44 | 30.47525 | 97.69849 | 34820 ft | 521 kts | 97° |
| 2026-05-06 10:44 | 30.46809 | 97.78207 | 34814 ft | 519 kts | 97° |
| 2026-05-06 10:45 | 30.46088 | 97.86528 | 34822 ft | 519 kts | 97° |
| 2026-05-06 10:45 | 30.45357 | 97.94844 | 34806 ft | 518 kts | 97° |
| 2026-05-06 10:46 | 30.44628 | 98.03159 | 34812 ft | 519 kts | 97° |
| 2026-05-06 10:46 | 30.43892 | 98.11467 | 34805 ft | 519 kts | 97° |
| 2026-05-06 10:47 | 30.43148 | 98.19764 | 34785 ft | 517 kts | 97° |
| 2026-05-06 10:47 | 30.42469 | 98.28058 | 34791 ft | 517 kts | 96° |
| 2026-05-06 10:48 | 30.41858 | 98.36349 | 34780 ft | 517 kts | 96° |
| 2026-05-06 10:48 | 30.41230 | 98.44651 | 34777 ft | 517 kts | 96° |
| 2026-05-06 10:49 | 30.40571 | 98.52954 | 34772 ft | 518 kts | 96° |
| 2026-05-06 10:49 | 30.39909 | 98.61249 | 34772 ft | 517 kts | 96° |
| 2026-05-06 10:50 | 30.39250 | 98.69539 | 34762 ft | 517 kts | 96° |
| 2026-05-06 10:50 | 30.38574 | 98.77844 | 34743 ft | 519 kts | 96° |
| 2026-05-06 10:51 | 30.37893 | 98.86126 | 34742 ft | 521 kts | 96° |
| 2026-05-06 10:51 | 30.37203 | 98.94467 | 34720 ft | 520 kts | 96° |
| 2026-05-06 10:52 | 30.36508 | 99.02864 | 34731 ft | 521 kts | 95° |
| 2026-05-06 10:52 | 30.35816 | 99.11155 | 34731 ft | 521 kts | 96° |
| 2026-05-06 10:53 | 30.35109 | 99.19489 | 34722 ft | 520 kts | 96° |
| 2026-05-06 10:53 | 30.34400 | 99.27848 | 34790 ft | 522 kts | 96° |
| 2026-05-06 10:54 | 30.33691 | 99.36204 | 34756 ft | 519 kts | 96° |
| 2026-05-06 10:54 | 30.32975 | 99.44539 | 34815 ft | 522 kts | 97° |
| 2026-05-06 10:55 | 30.32253 | 99.52880 | 34822 ft | 520 kts | 96° |
| 2026-05-06 10:55 | 30.31524 | 99.61206 | 34853 ft | 519 kts | 96° |
| 2026-05-06 10:56 | 30.30791 | 99.69515 | 34859 ft | 518 kts | 96° |
| 2026-05-06 10:56 | 30.30060 | 99.77800 | 34852 ft | 516 kts | 97° |
| 2026-05-06 10:57 | 30.29324 | 99.86057 | 34821 ft | 516 kts | 97° |
| 2026-05-06 10:57 | 30.28577 | 99.94302 | 34830 ft | 515 kts | 97° |
| 2026-05-06 10:58 | 30.27834 | 100.02554 | 34817 ft | 515 kts | 96° |
| 2026-05-06 10:58 | 30.27205 | 100.10794 | 34817 ft | 514 kts | 95° |
| 2026-05-06 10:59 | 30.26636 | 100.19031 | 34800 ft | 514 kts | 95° |
| 2026-05-06 10:59 | 30.26045 | 100.27265 | 34806 ft | 513 kts | 96° |
| 2026-05-06 11:00 | 30.25415 | 100.35483 | 34775 ft | 513 kts | 96° |
| 2026-05-06 11:00 | 30.24773 | 100.43699 | 34762 ft | 513 kts | 96° |
| 2026-05-06 11:01 | 30.24142 | 100.51865 | 34769 ft | 513 kts | 96° |
| 2026-05-06 11:01 | 30.23510 | 100.60129 | 34757 ft | 512 kts | 96° |
| 2026-05-06 11:02 | 30.22866 | 100.68273 | 34754 ft | 511 kts | 96° |
| 2026-05-06 11:02 | 30.22208 | 100.76457 | 34746 ft | 511 kts | 96° |
| 2026-05-06 11:03 | 30.21558 | 100.84646 | 34743 ft | 511 kts | 96° |
| 2026-05-06 11:03 | 30.20903 | 100.92818 | 34745 ft | 511 kts | 96° |
| 2026-05-06 11:04 | 30.20233 | 101.00991 | 34749 ft | 510 kts | 95° |
| 2026-05-06 11:04 | 30.19567 | 101.09158 | 34774 ft | 511 kts | 96° |
| 2026-05-06 11:05 | 30.18897 | 101.17330 | 34773 ft | 511 kts | 96° |
| 2026-05-06 11:05 | 30.18220 | 101.25500 | 34769 ft | 511 kts | 96° |
| 2026-05-06 11:06 | 30.17528 | 101.33671 | 34802 ft | 510 kts | 96° |
| 2026-05-06 11:06 | 30.16834 | 101.41827 | 34824 ft | 510 kts | 96° |
| 2026-05-06 11:07 | 30.16140 | 101.49963 | 34894 ft | 507 kts | 96° |
| 2026-05-06 11:07 | 30.15451 | 101.58093 | 34903 ft | 509 kts | 96° |
| 2026-05-06 11:08 | 30.14768 | 101.66236 | 34973 ft | 508 kts | 95° |
| 2026-05-06 11:08 | 30.15146 | 101.74376 | 34965 ft | 508 kts | 77° |
| 2026-05-06 11:08 | 30.16106 | 101.78290 | 35074 ft | 505 kts | 68° |
| 2026-05-06 11:09 | 30.17456 | 101.82022 | 35077 ft | 503 kts | 65° |
| 2026-05-06 11:09 | 30.20208 | 101.89451 | 35068 ft | 501 kts | 65° |
| 2026-05-06 11:10 | 30.22927 | 101.96873 | 35131 ft | 501 kts | 65° |
| 2026-05-06 11:10 | 30.25633 | 102.04269 | 35128 ft | 499 kts | 65° |
| 2026-05-06 11:11 | 30.28344 | 102.11656 | 35157 ft | 499 kts | 65° |
| 2026-05-06 11:11 | 30.31055 | 102.19039 | 35173 ft | 498 kts | 65° |
| 2026-05-06 11:12 | 30.33731 | 102.26370 | 35151 ft | 497 kts | 65° |
| 2026-05-06 11:12 | 30.36430 | 102.33800 | 35162 ft | 498 kts | 65° |
| 2026-05-06 11:13 | 30.39111 | 102.41194 | 35179 ft | 497 kts | 66° |
| 2026-05-06 11:13 | 30.41780 | 102.48568 | 35167 ft | 496 kts | 66° |
| 2026-05-06 11:14 | 30.44457 | 102.55938 | 35165 ft | 496 kts | 66° |
| 2026-05-06 11:14 | 30.47114 | 102.63267 | 35158 ft | 496 kts | 66° |
| 2026-05-06 11:15 | 30.49789 | 102.70697 | 35162 ft | 496 kts | 66° |
| 2026-05-06 11:15 | 30.52421 | 102.78038 | 35152 ft | 496 kts | 66° |
| 2026-05-06 11:16 | 30.55071 | 102.85435 | 35126 ft | 497 kts | 67° |
| 2026-05-06 11:16 | 30.57727 | 102.92876 | 35110 ft | 500 kts | 66° |
| 2026-05-06 11:17 | 30.60389 | 103.00329 | 35111 ft | 500 kts | 66° |
| 2026-05-06 11:17 | 30.63023 | 103.07813 | 35081 ft | 500 kts | 66° |
| 2026-05-06 11:18 | 30.65597 | 103.15336 | 35110 ft | 502 kts | 67° |
| 2026-05-06 11:18 | 30.67723 | 103.23060 | 35069 ft | 504 kts | 80° |
| 2026-05-06 11:19 | 30.67977 | 103.31159 | 35067 ft | 503 kts | 97° |
| 2026-05-06 11:19 | 30.67246 | 103.39248 | 35029 ft | 504 kts | 97° |
| 2026-05-06 11:20 | 30.66504 | 103.47345 | 35035 ft | 504 kts | 97° |
| 2026-05-06 11:20 | 30.65749 | 103.55452 | 35001 ft | 506 kts | 97° |
| 2026-05-06 11:21 | 30.65112 | 103.62206 | 35000 ft | 507 kts | 97° |
| 2026-05-06 11:21 | 30.64030 | 103.70288 | 34991 ft | 505 kts | 108° |
| 2026-05-06 11:22 | 30.61885 | 103.78040 | 34997 ft | 505 kts | 110° |
| 2026-05-06 11:22 | 30.59718 | 103.85795 | 35009 ft | 505 kts | 110° |
| 2026-05-06 11:23 | 30.57880 | 103.93677 | 34996 ft | 509 kts | 99° |
| 2026-05-06 11:23 | 30.57777 | 104.01904 | 34995 ft | 512 kts | 86° |
| 2026-05-06 11:24 | 30.58276 | 104.10152 | 34971 ft | 513 kts | 86° |
| 2026-05-06 11:24 | 30.58752 | 104.18423 | 34990 ft | 514 kts | 86° |
| 2026-05-06 11:25 | 30.59221 | 104.26699 | 34973 ft | 514 kts | 86° |
| 2026-05-06 11:25 | 30.59740 | 104.34980 | 34980 ft | 514 kts | 85° |
| 2026-05-06 11:26 | 30.60295 | 104.43263 | 34988 ft | 514 kts | 85° |
| 2026-05-06 11:26 | 30.61273 | 104.51467 | 34983 ft | 513 kts | 73° |
| 2026-05-06 11:27 | 30.63314 | 104.59401 | 34982 ft | 513 kts | 72° |
| 2026-05-06 11:27 | 30.65365 | 104.67331 | 34977 ft | 513 kts | 72° |
| 2026-05-06 11:28 | 30.67408 | 104.75278 | 35009 ft | 513 kts | 72° |
| 2026-05-06 11:28 | 30.69441 | 104.83219 | 35011 ft | 512 kts | 72° |
| 2026-05-06 11:29 | 30.71460 | 104.91139 | 35008 ft | 511 kts | 72° |
| 2026-05-06 11:29 | 30.73473 | 104.99052 | 34981 ft | 510 kts | 72° |
| 2026-05-06 11:30 | 30.75486 | 105.06960 | 34977 ft | 510 kts | 72° |
| 2026-05-06 11:30 | 30.77494 | 105.14877 | 34964 ft | 510 kts | 72° |
| 2026-05-06 11:31 | 30.79496 | 105.22798 | 34959 ft | 511 kts | 72° |
| 2026-05-06 11:31 | 30.81491 | 105.30721 | 34963 ft | 511 kts | 72° |
| 2026-05-06 11:32 | 30.83486 | 105.38659 | 34954 ft | 512 kts | 72° |
| 2026-05-06 11:32 | 30.85413 | 105.46637 | 34958 ft | 512 kts | 74° |
| 2026-05-06 11:33 | 30.87112 | 105.54686 | 34990 ft | 511 kts | 76° |
| 2026-05-06 11:33 | 30.88731 | 105.62724 | 34995 ft | 509 kts | 76° |
| 2026-05-06 11:34 | 30.90398 | 105.70722 | 34989 ft | 508 kts | 75° |
| 2026-05-06 11:34 | 30.92110 | 105.78704 | 34971 ft | 507 kts | 75° |
| 2026-05-06 11:35 | 30.93809 | 105.86670 | 34971 ft | 507 kts | 75° |
| 2026-05-06 11:35 | 30.95470 | 105.94640 | 34963 ft | 506 kts | 78° |
| 2026-05-06 11:36 | 30.95903 | 106.02796 | 34962 ft | 505 kts | 96° |
| 2026-05-06 11:36 | 30.94439 | 106.10760 | 34949 ft | 503 kts | 107° |
| 2026-05-06 11:37 | 30.92579 | 106.18620 | 34947 ft | 504 kts | 107° |
| 2026-05-06 11:37 | 30.90718 | 106.26492 | 34941 ft | 504 kts | 107° |
| 2026-05-06 11:38 | 30.88828 | 106.34357 | 34947 ft | 504 kts | 110° |
| 2026-05-06 11:38 | 30.85780 | 106.41604 | 34939 ft | 496 kts | 129° |
| 2026-05-06 11:39 | 30.81196 | 106.47488 | 34938 ft | 489 kts | 142° |
| 2026-05-06 11:39 | 30.76220 | 106.52899 | 34935 ft | 490 kts | 141° |
| 2026-05-06 11:40 | 30.71241 | 106.58326 | 34912 ft | 491 kts | 142° |
| 2026-05-06 11:40 | 30.66237 | 106.63755 | 34767 ft | 494 kts | 143° |
| 2026-05-06 11:40 | 30.63558 | 106.66194 | 34538 ft | 486 kts | 153° |
| 2026-05-06 11:41 | 30.60671 | 106.68066 | 34312 ft | 478 kts | 162° |
| 2026-05-06 11:41 | 30.57585 | 106.69453 | 33453 ft | 476 kts | 170° |
| 2026-05-06 11:41 | 30.54362 | 106.70246 | 32460 ft | 472 kts | 179° |
| 2026-05-06 11:41 | 30.51088 | 106.70563 | 31510 ft | 473 kts | 181° |
| 2026-05-06 11:42 | 30.47752 | 106.70854 | 30562 ft | 477 kts | 180° |
| 2026-05-06 11:42 | 30.44460 | 106.71160 | 29396 ft | 484 kts | 180° |
| 2026-05-06 11:42 | 30.41041 | 106.71491 | 28247 ft | 488 kts | 180° |
| 2026-05-06 11:42 | 30.37680 | 106.71826 | 27661 ft | 480 kts | 180° |
| 2026-05-06 11:43 | 30.34377 | 106.72008 | 26938 ft | 471 kts | 186° |
| 2026-05-06 11:43 | 30.31184 | 106.71632 | 26221 ft | 461 kts | 195° |
| 2026-05-06 11:43 | 30.28114 | 106.70717 | 25517 ft | 452 kts | 201° |
| 2026-05-06 11:44 | 30.22146 | 106.68606 | 24150 ft | 446 kts | 200° |
| 2026-05-06 11:44 | 30.19180 | 106.67569 | 23464 ft | 443 kts | 200° |
| 2026-05-06 11:44 | 30.16234 | 106.66547 | 22731 ft | 441 kts | 200° |
| 2026-05-06 11:44 | 30.13316 | 106.65537 | 22109 ft | 436 kts | 199° |
| 2026-05-06 11:45 | 30.10427 | 106.64538 | 21497 ft | 432 kts | 199° |
| 2026-05-06 11:45 | 30.07564 | 106.63548 | 20915 ft | 427 kts | 199° |
| 2026-05-06 11:45 | 30.04736 | 106.62565 | 20337 ft | 423 kts | 199° |
| 2026-05-06 11:45 | 30.01929 | 106.61589 | 19778 ft | 419 kts | 199° |
| 2026-05-06 11:46 | 29.99152 | 106.60625 | 19246 ft | 415 kts | 198° |
| 2026-05-06 11:46 | 29.96405 | 106.59670 | 18713 ft | 411 kts | 198° |
| 2026-05-06 11:46 | 29.93679 | 106.58725 | 18207 ft | 407 kts | 198° |
| 2026-05-06 11:46 | 29.90984 | 106.57791 | 17645 ft | 403 kts | 198° |
| 2026-05-06 11:47 | 29.88313 | 106.56870 | 17132 ft | 398 kts | 198° |
| 2026-05-06 11:47 | 29.85672 | 106.55960 | 16625 ft | 394 kts | 198° |
| 2026-05-06 11:47 | 29.83047 | 106.55055 | 16101 ft | 391 kts | 198° |
| 2026-05-06 11:47 | 29.80450 | 106.54155 | 15605 ft | 388 kts | 198° |
| 2026-05-06 11:48 | 29.77889 | 106.53266 | 15208 ft | 382 kts | 198° |
| 2026-05-06 11:48 | 29.75345 | 106.52385 | 14667 ft | 381 kts | 198° |
| 2026-05-06 11:48 | 29.72807 | 106.51507 | 14130 ft | 381 kts | 198° |
| 2026-05-06 11:48 | 29.70270 | 106.50634 | 13561 ft | 381 kts | 198° |
| 2026-05-06 11:49 | 29.67730 | 106.49760 | 12955 ft | 380 kts | 198° |
| 2026-05-06 11:49 | 29.65206 | 106.48893 | 12371 ft | 378 kts | 198° |
| 2026-05-06 11:49 | 29.62693 | 106.48033 | 11800 ft | 376 kts | 198° |
| 2026-05-06 11:49 | 29.60195 | 106.47177 | 11205 ft | 374 kts | 198° |
| 2026-05-06 11:50 | 29.57704 | 106.46322 | 10749 ft | 369 kts | 198° |
| 2026-05-06 11:50 | 29.55297 | 106.45496 | 10621 ft | 354 kts | 198° |
| 2026-05-06 11:50 | 29.52986 | 106.44705 | 10496 ft | 340 kts | 198° |
| 2026-05-06 11:50 | 29.50769 | 106.43948 | 10397 ft | 326 kts | 198° |
| 2026-05-06 11:51 | 29.48626 | 106.43214 | 10251 ft | 316 kts | 198° |
| 2026-05-06 11:51 | 29.46553 | 106.42503 | 10101 ft | 307 kts | 198° |
| 2026-05-06 11:51 | 29.44476 | 106.42202 | 9919 ft | 301 kts | 175° |
| 2026-05-06 11:51 | 29.42494 | 106.43018 | 9305 ft | 311 kts | 144° |
| 2026-05-06 11:52 | 29.41118 | 106.44925 | 8732 ft | 316 kts | 114° |
| 2026-05-06 11:52 | 29.40399 | 106.47315 | 8179 ft | 319 kts | 106° |
| 2026-05-06 11:52 | 29.39812 | 106.49776 | 7610 ft | 321 kts | 97° |
| 2026-05-06 11:52 | 29.40022 | 106.52277 | 7206 ft | 313 kts | 66° |
| 2026-05-06 11:53 | 29.41246 | 106.54181 | 6974 ft | 288 kts | 34° |
| 2026-05-06 11:53 | 29.43059 | 106.54994 | 6665 ft | 280 kts | 2° |
| 2026-05-06 11:53 | 29.44990 | 106.54863 | 6336 ft | 276 kts | 356° |
| 2026-05-06 11:53 | 29.46844 | 106.55246 | 6001 ft | 272 kts | 22° |
| 2026-05-06 11:54 | 29.48562 | 106.56074 | 5648 ft | 261 kts | 19° |
| 2026-05-06 11:54 | 29.50245 | 106.56700 | 5320 ft | 248 kts | 17° |
| 2026-05-06 11:54 | 29.51853 | 106.57242 | 5017 ft | 235 kts | 17° |
| 2026-05-06 11:54 | 29.53396 | 106.57768 | 4731 ft | 227 kts | 18° |
| 2026-05-06 11:55 | 29.54878 | 106.58278 | 4437 ft | 218 kts | 18° |
| 2026-05-06 11:55 | 29.56303 | 106.58769 | 4158 ft | 210 kts | 18° |
| 2026-05-06 11:55 | 29.57684 | 106.59244 | 3902 ft | 202 kts | 18° |
| 2026-05-06 11:55 | 29.58984 | 106.59693 | 3653 ft | 195 kts | 18° |
| 2026-05-06 11:56 | 29.60266 | 106.60135 | 3392 ft | 190 kts | 18° |
| 2026-05-06 11:56 | 29.61509 | 106.60564 | 3149 ft | 183 kts | 18° |
| 2026-05-06 11:56 | 29.62715 | 106.60980 | 2904 ft | 178 kts | 18° |
| 2026-05-06 11:56 | 29.63873 | 106.61379 | 2674 ft | 169 kts | 18° |
| 2026-05-06 11:57 | 29.64936 | 106.61746 | 2483 ft | 154 kts | 17° |
| 2026-05-06 11:57 | 29.65920 | 106.62086 | 2309 ft | 144 kts | 17° |
| 2026-05-06 11:57 | 29.66870 | 106.62414 | 2130 ft | 140 kts | 17° |
| 2026-05-06 11:57 | 29.67797 | 106.62735 | 1950 ft | 139 kts | 17° |
| 2026-05-06 11:58 | 29.68723 | 106.63054 | 1770 ft | 140 kts | 17° |
| 2026-05-06 11:58 | 29.69660 | 106.63379 | 1510 ft | 141 kts | 16° |
| 2026-05-06 11:58 | 29.70593 | 106.63696 | 1382 ft | 139 kts | 14° |
| 2026-05-06 11:58 | 29.71404 | 106.63972 | 1357 ft | 89 kts | 17° |
| 2026-05-06 11:59 | 29.71753 | 106.64095 | 1360 ft | 35 kts | 16° |
| 2026-05-06 11:59 | 29.71966 | 106.64182 | 1360 ft | 31 kts | 26° |
| 2026-05-06 11:59 | 29.72124 | 106.64338 | 1359 ft | 29 kts | 44° |
| 2026-05-06 11:59 | 29.72202 | 106.64503 | 1356 ft | 23 kts | 105° |
| 2026-05-06 12:00 | 29.72164 | 106.64684 | 1354 ft | 24 kts | 105° |
| 2026-05-06 12:00 | 29.72119 | 106.64860 | 1357 ft | 20 kts | 107° |
| 2026-05-06 12:00 | 29.72070 | 106.64986 | 1355 ft | 14 kts | 157° |
| 2026-05-06 12:00 | 29.71984 | 106.64963 | 1354 ft | 12 kts | 198° |
| 2026-05-06 12:01 | 29.71911 | 106.64937 | 1354 ft | 10 kts | 196° |
| 2026-05-06 12:01 | 29.71863 | 106.64959 | 1354 ft | 8 kts | 107° |
| 2026-05-06 12:01 | 29.71853 | 106.64995 | 1354 ft | 0 kts | 107° |
| 2026-05-06 12:01 | 29.71852 | 106.64998 | 1354 ft | 0 kts | 107° |